sensor_id;sensor_type;location;lat;lon;timestamp;pressure;altitude;pressure_sealevel;temperature;humidity
7337;BME280;54510;42.016;23.098;2023-01-01T00:02:00;-21316.03;;;6.59;70.64
7337;BME280;54510;42.016;23.098;2023-01-01T00:04:25;-21314.09;;;6.52;70.64
7337;BME280;54510;42.016;23.098;2023-01-01T00:06:51;-21311.59;;;6.43;70.84
7337;BME280;54510;42.016;23.098;2023-01-01T00:09:16;-21307.13;;;6.27;71.64
7337;BME280;54510;42.016;23.098;2023-01-01T00:12:00;-21307.41;;;6.28;71.10
7337;BME280;54510;42.016;23.098;2023-01-01T00:14:25;-21306.00;;;6.23;71.08
7337;BME280;54510;42.016;23.098;2023-01-01T00:16:53;-21306.56;;;6.25;71.40
7337;BME280;54510;42.016;23.098;2023-01-01T00:19:19;-21305.84;;;6.22;71.16
7337;BME280;54510;42.016;23.098;2023-01-01T00:21:45;-21302.94;;;6.12;71.39
7337;BME280;54510;42.016;23.098;2023-01-01T00:24:10;-21302.66;;;6.11;71.64
7337;BME280;54510;42.016;23.098;2023-01-01T00:26:36;-21306.41;;;6.24;71.17
7337;BME280;54510;42.016;23.098;2023-01-01T00:29:01;-21301.25;;;6.06;71.48
7337;BME280;54510;42.016;23.098;2023-01-01T00:31:27;-21297.22;;;5.91;72.55
7337;BME280;54510;42.016;23.098;2023-01-01T00:33:54;-21301.69;;;6.07;72.45
7337;BME280;54510;42.016;23.098;2023-01-01T00:36:21;-21305.72;;;6.22;72.08
7337;BME280;54510;42.016;23.098;2023-01-01T00:38:47;-21303.50;;;6.14;71.59
7337;BME280;54510;42.016;23.098;2023-01-01T00:41:14;-21305.59;;;6.21;71.15
7337;BME280;54510;42.016;23.098;2023-01-01T00:43:40;-21304.31;;;6.17;71.41
7337;BME280;54510;42.016;23.098;2023-01-01T00:46:06;-21299.03;;;5.98;71.32
7337;BME280;54510;42.016;23.098;2023-01-01T00:48:31;-21295.38;;;5.84;71.77
7337;BME280;54510;42.016;23.098;2023-01-01T00:50:57;-21294.56;;;5.81;71.53
7337;BME280;54510;42.016;23.098;2023-01-01T00:53:24;-21296.09;;;5.87;71.18
7337;BME280;54510;42.016;23.098;2023-01-01T00:55:50;-21295.94;;;5.86;70.93
7337;BME280;54510;42.016;23.098;2023-01-01T00:58:17;-21295.09;;;5.83;70.63
7337;BME280;54510;42.016;23.098;2023-01-01T01:00:42;-21293.72;;;5.78;70.82
7337;BME280;54510;42.016;23.098;2023-01-01T01:03:12;-21292.19;;;5.73;70.82
7337;BME280;54510;42.016;23.098;2023-01-01T01:06:13;-21291.75;;;5.71;70.52
7337;BME280;54510;42.016;23.098;2023-01-01T01:08:41;-21289.25;;;5.62;70.33
7337;BME280;54510;42.016;23.098;2023-01-01T01:11:12;-21285.34;;;5.48;70.71
7337;BME280;54510;42.016;23.098;2023-01-01T01:13:39;-21288.00;;;5.57;71.09
7337;BME280;54510;42.016;23.098;2023-01-01T01:16:31;-21289.53;;;5.63;71.06
7337;BME280;54510;42.016;23.098;2023-01-01T01:18:57;-21290.38;;;5.66;70.96
7337;BME280;54510;42.016;23.098;2023-01-01T01:21:24;-21284.78;;;5.46;71.59
7337;BME280;54510;42.016;23.098;2023-01-01T01:23:50;-21282.41;;;5.37;71.76
7337;BME280;54510;42.016;23.098;2023-01-01T01:26:18;-21281.72;;;5.35;71.71
7337;BME280;54510;42.016;23.098;2023-01-01T01:28:45;-21282.41;;;5.37;71.46
7337;BME280;54510;42.016;23.098;2023-01-01T01:31:11;-21280.59;;;5.31;71.74
7337;BME280;54510;42.016;23.098;2023-01-01T01:33:37;-21282.41;;;5.37;72.01
7337;BME280;54510;42.016;23.098;2023-01-01T01:36:03;-21284.38;;;5.44;72.29
7337;BME280;54510;42.016;23.098;2023-01-01T01:38:30;-21282.28;;;5.37;71.35
7337;BME280;54510;42.016;23.098;2023-01-01T01:40:55;-21283.66;;;5.42;71.92
7337;BME280;54510;42.016;23.098;2023-01-01T01:43:45;-21284.22;;;5.44;72.00
7337;BME280;54510;42.016;23.098;2023-01-01T01:46:21;-21285.34;;;5.48;71.90
7337;BME280;54510;42.016;23.098;2023-01-01T01:48:50;-21285.06;;;5.47;72.18
7337;BME280;54510;42.016;23.098;2023-01-01T01:51:37;-21282.28;;;5.37;71.15
7337;BME280;54510;42.016;23.098;2023-01-01T01:54:10;-21283.38;;;5.41;71.54
7337;BME280;54510;42.016;23.098;2023-01-01T01:56:46;-21285.34;;;5.48;71.65
7337;BME280;54510;42.016;23.098;2023-01-01T01:59:14;-21278.91;;;5.25;73.00
7337;BME280;54510;42.016;23.098;2023-01-01T02:01:41;-21276.53;;;5.16;73.25
7337;BME280;54510;42.016;23.098;2023-01-01T02:04:07;-21283.25;;;5.40;73.19
7337;BME280;54510;42.016;23.098;2023-01-01T02:06:33;-21288.97;;;5.61;72.40
7337;BME280;54510;42.016;23.098;2023-01-01T02:09:01;-21281.00;;;5.32;72.54
7337;BME280;54510;42.016;23.098;2023-01-01T02:11:27;-21275.00;;;5.10;73.25
7337;BME280;54510;42.016;23.098;2023-01-01T02:13:53;-21273.88;;;5.06;73.77
7337;BME280;54510;42.016;23.098;2023-01-01T02:16:40;-21276.97;;;5.18;73.60
7337;BME280;54510;42.016;23.098;2023-01-01T02:24:58;-21273.59;;;5.05;74.06
7337;BME280;54510;42.016;23.098;2023-01-01T02:30:13;-21271.66;;;4.98;72.39
7337;BME280;54510;42.016;23.098;2023-01-01T02:33:24;-21268.44;;;4.87;73.09
7337;BME280;54510;42.016;23.098;2023-01-01T02:35:37;-21257.41;;;4.47;73.33
7337;BME280;54510;42.016;23.098;2023-01-01T02:38:32;-21257.13;;;4.46;73.71
7337;BME280;54510;42.016;23.098;2023-01-01T02:41:05;-21264.94;;;4.74;73.51
7337;BME280;54510;42.016;23.098;2023-01-01T02:43:32;-21266.06;;;4.78;72.85
7337;BME280;54510;42.016;23.098;2023-01-01T02:45:58;-21259.63;;;4.55;72.70
7337;BME280;54510;42.016;23.098;2023-01-01T02:48:55;-21262.00;;;4.63;73.00
7337;BME280;54510;42.016;23.098;2023-01-01T02:57:25;-21263.97;;;4.70;71.66
7337;BME280;54510;42.016;23.098;2023-01-01T03:11:33;-21255.72;;;4.41;72.35
7337;BME280;54510;42.016;23.098;2023-01-01T03:14:15;-21248.16;;;4.13;73.17
7337;BME280;54510;42.016;23.098;2023-01-01T03:17:08;-21252.91;;;4.30;74.16
7337;BME280;54510;42.016;23.098;2023-01-01T03:19:38;-21254.59;;;4.36;73.62
7337;BME280;54510;42.016;23.098;2023-01-01T03:22:13;-21249.72;;;4.19;74.69
7337;BME280;54510;42.016;23.098;2023-01-01T03:24:46;-21258.09;;;4.49;74.18
7337;BME280;54510;42.016;23.098;2023-01-01T03:29:39;-21259.22;;;4.53;74.20
7337;BME280;54510;42.016;23.098;2023-01-01T03:32:13;-21261.88;;;4.63;74.26
7337;BME280;54510;42.016;23.098;2023-01-01T03:34:44;-21264.38;;;4.72;74.26
7337;BME280;54510;42.016;23.098;2023-01-01T03:37:15;-21266.06;;;4.78;74.85
7337;BME280;54510;42.016;23.098;2023-01-01T03:39:50;-21264.66;;;4.73;74.76
7337;BME280;54510;42.016;23.098;2023-01-01T03:44:59;-21267.31;;;4.83;74.68
7337;BME280;54510;42.016;23.098;2023-01-01T03:47:27;-21269.97;;;4.92;75.54
7337;BME280;54510;42.016;23.098;2023-01-01T03:49:53;-21268.72;;;4.88;75.11
7337;BME280;54510;42.016;23.098;2023-01-01T04:00:13;-21267.75;;;4.84;75.83
7337;BME280;54510;42.016;23.098;2023-01-01T04:05:09;-21273.59;;;5.05;75.45
7337;BME280;54510;42.016;23.098;2023-01-01T04:07:35;-21271.78;;;4.99;74.68
7337;BME280;54510;42.016;23.098;2023-01-01T04:10:02;-21273.06;;;5.03;74.48
7337;BME280;54510;42.016;23.098;2023-01-01T04:12:43;-21269.69;;;4.91;74.32
7337;BME280;54510;42.016;23.098;2023-01-01T04:15:09;-21266.91;;;4.81;74.12
7337;BME280;54510;42.016;23.098;2023-01-01T04:17:35;-21260.34;;;4.57;73.96
7337;BME280;54510;42.016;23.098;2023-01-01T04:20:00;-21267.19;;;4.82;74.83
7337;BME280;54510;42.016;23.098;2023-01-01T04:22:25;-21270.81;;;4.95;74.42
7337;BME280;54510;42.016;23.098;2023-01-01T04:24:51;-21269.28;;;4.90;74.27
7337;BME280;54510;42.016;23.098;2023-01-01T04:27:16;-21271.50;;;4.98;74.02
7337;BME280;54510;42.016;23.098;2023-01-01T04:29:42;-21274.72;;;5.09;73.88
7337;BME280;54510;42.016;23.098;2023-01-01T04:32:07;-21278.78;;;5.24;72.90
7337;BME280;54510;42.016;23.098;2023-01-01T04:34:32;-21272.50;;;5.01;72.98
7337;BME280;54510;42.016;23.098;2023-01-01T04:36:58;-21269.13;;;4.89;73.18
7337;BME280;54510;42.016;23.098;2023-01-01T04:39:23;-21268.84;;;4.88;73.29
7337;BME280;54510;42.016;23.098;2023-01-01T04:41:48;-21268.00;;;4.85;73.15
7337;BME280;54510;42.016;23.098;2023-01-01T04:44:14;-21271.50;;;4.98;73.32
7337;BME280;54510;42.016;23.098;2023-01-01T04:46:39;-21267.88;;;4.85;73.26
7337;BME280;54510;42.016;23.098;2023-01-01T04:49:06;-21269.56;;;4.91;73.89
7337;BME280;54510;42.016;23.098;2023-01-01T04:51:32;-21267.19;;;4.82;73.22
7337;BME280;54510;42.016;23.098;2023-01-01T04:53:58;-21262.84;;;4.66;73.89
7337;BME280;54510;42.016;23.098;2023-01-01T04:56:23;-21263.41;;;4.68;74.29
7337;BME280;54510;42.016;23.098;2023-01-01T04:58:49;-21262.44;;;4.65;74.05
7337;BME280;54510;42.016;23.098;2023-01-01T05:01:25;-21255.59;;;4.40;75.01
7337;BME280;54510;42.016;23.098;2023-01-01T05:03:51;-21253.75;;;4.33;75.41
7337;BME280;54510;42.016;23.098;2023-01-01T05:06:17;-21257.97;;;4.49;75.56
7337;BME280;54510;42.016;23.098;2023-01-01T05:08:45;-21259.91;;;4.56;75.33
7337;BME280;54510;42.016;23.098;2023-01-01T05:11:15;-21260.75;;;4.59;75.09
7337;BME280;54510;42.016;23.098;2023-01-01T05:13:43;-21265.66;;;4.76;74.96
7337;BME280;54510;42.016;23.098;2023-01-01T05:16:11;-21265.94;;;4.78;74.64
7337;BME280;54510;42.016;23.098;2023-01-01T05:18:38;-21258.78;;;4.52;74.84
7337;BME280;54510;42.016;23.098;2023-01-01T05:21:07;-21264.09;;;4.71;75.12
7337;BME280;54510;42.016;23.098;2023-01-01T05:23:33;-21268.28;;;4.86;75.03
7337;BME280;54510;42.016;23.098;2023-01-01T05:25:59;-21265.78;;;4.77;74.36
7337;BME280;54510;42.016;23.098;2023-01-01T05:28:24;-21264.09;;;4.71;74.33
7337;BME280;54510;42.016;23.098;2023-01-01T05:30:51;-21269.13;;;4.89;74.36
7337;BME280;54510;42.016;23.098;2023-01-01T05:33:17;-21270.53;;;4.94;73.93
7337;BME280;54510;42.016;23.098;2023-01-01T05:35:42;-21271.78;;;4.99;74.40
7337;BME280;54510;42.016;23.098;2023-01-01T05:38:08;-21270.41;;;4.94;74.82
7337;BME280;54510;42.016;23.098;2023-01-01T05:40:33;-21271.78;;;4.99;74.50
7337;BME280;54510;42.016;23.098;2023-01-01T05:42:59;-21269.41;;;4.90;74.59
7337;BME280;54510;42.016;23.098;2023-01-01T05:45:25;-21274.16;;;5.07;73.99
7337;BME280;54510;42.016;23.098;2023-01-01T05:47:50;-21277.66;;;5.20;73.73
7337;BME280;54510;42.016;23.098;2023-01-01T05:50:15;-21275.69;;;5.13;72.98
7337;BME280;54510;42.016;23.098;2023-01-01T05:52:41;-21269.41;;;4.90;72.59
7337;BME280;54510;42.016;23.098;2023-01-01T05:55:07;-21266.47;;;4.80;73.18
7337;BME280;54510;42.016;23.098;2023-01-01T05:57:32;-21258.78;;;4.52;73.71
7337;BME280;54510;42.016;23.098;2023-01-01T05:59:58;-21255.16;;;4.38;74.88
7337;BME280;54510;42.016;23.098;2023-01-01T06:02:23;-21254.19;;;4.35;75.23
7337;BME280;54510;42.016;23.098;2023-01-01T06:04:48;-21260.47;;;4.58;74.95
7337;BME280;54510;42.016;23.098;2023-01-01T06:07:14;-21262.00;;;4.63;74.20
7337;BME280;54510;42.016;23.098;2023-01-01T06:09:39;-21267.59;;;4.84;74.26
7337;BME280;54510;42.016;23.098;2023-01-01T06:12:05;-21270.53;;;4.94;73.89
7337;BME280;54510;42.016;23.098;2023-01-01T06:14:31;-21270.69;;;4.95;73.40
7337;BME280;54510;42.016;23.098;2023-01-01T06:16:56;-21267.03;;;4.82;73.63
7337;BME280;54510;42.016;23.098;2023-01-01T06:19:21;-21271.66;;;4.98;73.78
7337;BME280;54510;42.016;23.098;2023-01-01T06:21:47;-21261.59;;;4.62;73.56
7337;BME280;54510;42.016;23.098;2023-01-01T06:24:12;-21261.16;;;4.60;74.67
7337;BME280;54510;42.016;23.098;2023-01-01T06:26:38;-21264.09;;;4.71;74.48
7337;BME280;54510;42.016;23.098;2023-01-01T06:29:03;-21269.28;;;4.90;74.33
7337;BME280;54510;42.016;23.098;2023-01-01T06:31:29;-21275.69;;;5.13;73.57
7337;BME280;54510;42.016;23.098;2023-01-01T06:33:55;-21274.44;;;5.08;73.26
7337;BME280;54510;42.016;23.098;2023-01-01T06:36:23;-21275.00;;;5.10;73.26
7337;BME280;54510;42.016;23.098;2023-01-01T06:38:52;-21276.53;;;5.16;73.53
7337;BME280;54510;42.016;23.098;2023-01-01T06:41:20;-21276.53;;;5.16;73.26
7337;BME280;54510;42.016;23.098;2023-01-01T06:43:46;-21277.09;;;5.18;73.43
7337;BME280;54510;42.016;23.098;2023-01-01T06:46:23;-21280.31;;;5.30;73.86
7337;BME280;54510;42.016;23.098;2023-01-01T06:48:55;-21277.66;;;5.20;73.59
7337;BME280;54510;42.016;23.098;2023-01-01T06:51:25;-21274.72;;;5.09;73.53
7337;BME280;54510;42.016;23.098;2023-01-01T06:53:52;-21272.34;;;5.01;73.91
7337;BME280;54510;42.016;23.098;2023-01-01T06:56:18;-21275.56;;;5.12;74.12
7337;BME280;54510;42.016;23.098;2023-01-01T06:58:44;-21281.44;;;5.34;73.49
7337;BME280;54510;42.016;23.098;2023-01-01T07:03:39;-21283.94;;;5.43;73.25
7337;BME280;54510;42.016;23.098;2023-01-01T07:06:05;-21287.84;;;5.57;73.53
7337;BME280;54510;42.016;23.098;2023-01-01T07:08:31;-21286.72;;;5.53;72.81
7337;BME280;54510;42.016;23.098;2023-01-01T07:10:57;-21278.34;;;5.23;73.08
7337;BME280;54510;42.016;23.098;2023-01-01T07:13:26;-21285.34;;;5.48;72.94
7337;BME280;54510;42.016;23.098;2023-01-01T07:15:52;-21291.63;;;5.71;73.08
7337;BME280;54510;42.016;23.098;2023-01-01T07:18:19;-21291.47;;;5.70;72.28
7337;BME280;54510;42.016;23.098;2023-01-01T07:20:55;-21292.31;;;5.73;73.12
7337;BME280;54510;42.016;23.098;2023-01-01T07:23:21;-21296.50;;;5.88;72.57
7337;BME280;54510;42.016;23.098;2023-01-01T07:25:51;-21299.16;;;5.98;72.25
7337;BME280;54510;42.016;23.098;2023-01-01T07:28:17;-21297.91;;;5.93;72.59
7337;BME280;54510;42.016;23.098;2023-01-01T07:30:42;-21294.13;;;5.80;71.57
7337;BME280;54510;42.016;23.098;2023-01-01T07:33:13;-21296.38;;;5.88;71.93
7337;BME280;54510;42.016;23.098;2023-01-01T07:35:39;-21293.44;;;5.77;72.42
7337;BME280;54510;42.016;23.098;2023-01-01T07:38:05;-21296.22;;;5.87;72.00
7337;BME280;54510;42.016;23.098;2023-01-01T07:40:30;-21297.91;;;5.93;71.99
7337;BME280;54510;42.016;23.098;2023-01-01T07:42:56;-21294.28;;;5.80;72.13
7337;BME280;54510;42.016;23.098;2023-01-01T07:45:21;-21299.03;;;5.98;72.26
7337;BME280;54510;42.016;23.098;2023-01-01T07:47:50;-21308.38;;;6.31;71.73
7337;BME280;54510;42.016;23.098;2023-01-01T07:50:17;-21293.84;;;5.79;71.88
7337;BME280;54510;42.016;23.098;2023-01-01T07:52:43;-21298.19;;;5.94;72.64
7337;BME280;54510;42.016;23.098;2023-01-01T07:55:13;-21299.84;;;6.01;72.23
7337;BME280;54510;42.016;23.098;2023-01-01T07:57:42;-21306.41;;;6.24;71.79
7337;BME280;54510;42.016;23.098;2023-01-01T08:00:12;-21308.22;;;6.31;71.88
7337;BME280;54510;42.016;23.098;2023-01-01T08:02:39;-21307.41;;;6.28;71.25
7337;BME280;54510;42.016;23.098;2023-01-01T08:05:05;-21302.66;;;6.11;71.61
7337;BME280;54510;42.016;23.098;2023-01-01T08:07:31;-21308.22;;;6.31;71.45
7337;BME280;54510;42.016;23.098;2023-01-01T08:09:56;-21304.19;;;6.16;71.49
7337;BME280;54510;42.016;23.098;2023-01-01T08:12:23;-21304.75;;;6.18;71.75
7337;BME280;54510;42.016;23.098;2023-01-01T08:14:48;-21307.41;;;6.28;72.03
7337;BME280;54510;42.016;23.098;2023-01-01T08:17:14;-21308.78;;;6.33;71.67
7337;BME280;54510;42.016;23.098;2023-01-01T08:19:39;-21307.13;;;6.27;72.52
7337;BME280;54510;42.016;23.098;2023-01-01T08:22:04;-21305.44;;;6.21;72.30
7337;BME280;54510;42.016;23.098;2023-01-01T08:24:30;-21303.91;;;6.15;72.21
7337;BME280;54510;42.016;23.098;2023-01-01T08:26:55;-21304.03;;;6.16;72.94
7337;BME280;54510;42.016;23.098;2023-01-01T08:29:21;-21306.69;;;6.25;72.46
7337;BME280;54510;42.016;23.098;2023-01-01T08:31:47;-21302.22;;;6.09;72.93
7337;BME280;54510;42.016;23.098;2023-01-01T08:34:12;-21310.75;;;6.40;73.10
7337;BME280;54510;42.016;23.098;2023-01-01T08:36:38;-21312.00;;;6.45;72.13
7337;BME280;54510;42.016;23.098;2023-01-01T08:39:06;-21305.59;;;6.21;72.42
7337;BME280;54510;42.016;23.098;2023-01-01T08:41:32;-21306.97;;;6.26;72.58
7337;BME280;54510;42.016;23.098;2023-01-01T08:43:57;-21300.13;;;6.02;73.05
7337;BME280;54510;42.016;23.098;2023-01-01T08:46:23;-21305.59;;;6.21;72.67
7337;BME280;54510;42.016;23.098;2023-01-01T08:48:48;-21311.84;;;6.44;72.89
7337;BME280;54510;42.016;23.098;2023-01-01T08:51:14;-21316.88;;;6.62;71.83
7337;BME280;54510;42.016;23.098;2023-01-01T08:53:39;-21313.41;;;6.50;71.26
7337;BME280;54510;42.016;23.098;2023-01-01T08:56:07;-21317.03;;;6.63;71.76
7337;BME280;54510;42.016;23.098;2023-01-01T08:58:35;-21321.19;;;6.78;71.54
7337;BME280;54510;42.016;23.098;2023-01-01T09:01:00;-21322.31;;;6.82;71.40
7337;BME280;54510;42.016;23.098;2023-01-01T09:03:26;-21322.19;;;6.82;70.89
7337;BME280;54510;42.016;23.098;2023-01-01T09:05:52;-21321.19;;;6.78;71.13
7337;BME280;54510;42.016;23.098;2023-01-01T09:08:18;-21317.03;;;6.63;70.67
7337;BME280;54510;42.016;23.098;2023-01-01T09:10:44;-21317.72;;;6.65;71.33
7337;BME280;54510;42.016;23.098;2023-01-01T09:13:11;-21318.56;;;6.68;71.91
7337;BME280;54510;42.016;23.098;2023-01-01T09:15:37;-21319.81;;;6.73;71.83
7337;BME280;54510;42.016;23.098;2023-01-01T09:18:03;-21334.16;;;7.25;70.66
7337;BME280;54510;42.016;23.098;2023-01-01T09:20:28;-21337.66;;;7.38;69.75
7337;BME280;54510;42.016;23.098;2023-01-01T09:22:53;-21335.97;;;7.32;69.19
7337;BME280;54510;42.016;23.098;2023-01-01T09:25:19;-21341.13;;;7.50;69.54
7337;BME280;54510;42.016;23.098;2023-01-01T09:27:44;-21344.19;;;7.62;68.53
7337;BME280;54510;42.016;23.098;2023-01-01T09:30:11;-21338.50;;;7.41;68.94
7337;BME280;54510;42.016;23.098;2023-01-01T09:32:36;-21328.03;;;7.03;69.86
7337;BME280;54510;42.016;23.098;2023-01-01T09:35:02;-21321.75;;;6.80;70.54
7337;BME280;54510;42.016;23.098;2023-01-01T09:37:27;-21319.53;;;6.72;71.41
7337;BME280;54510;42.016;23.098;2023-01-01T09:39:53;-21328.31;;;7.04;71.53
7337;BME280;54510;42.016;23.098;2023-01-01T09:48:03;-21328.31;;;7.04;71.67
7337;BME280;54510;42.016;23.098;2023-01-01T09:50:48;-21332.63;;;7.20;71.57
7337;BME280;54510;42.016;23.098;2023-01-01T09:53:18;-21323.72;;;6.87;72.49
7337;BME280;54510;42.016;23.098;2023-01-01T09:55:58;-21332.50;;;7.19;71.08
7337;BME280;54510;42.016;23.098;2023-01-01T09:58:31;-21328.31;;;7.04;72.07
7337;BME280;54510;42.016;23.098;2023-01-01T10:01:06;-21328.72;;;7.05;72.30
7337;BME280;54510;42.016;23.098;2023-01-01T10:03:45;-21336.97;;;7.35;72.44
7337;BME280;54510;42.016;23.098;2023-01-01T10:06:19;-21348.38;;;7.77;70.92
7337;BME280;54510;42.016;23.098;2023-01-01T10:11:59;-21340.03;;;7.46;70.50
7337;BME280;54510;42.016;23.098;2023-01-01T10:14:41;-21351.59;;;7.88;70.42
7337;BME280;54510;42.016;23.098;2023-01-01T10:17:16;-21359.66;;;8.18;68.79
7337;BME280;54510;42.016;23.098;2023-01-01T10:19:50;-21364.66;;;8.36;68.87
7337;BME280;54510;42.016;23.098;2023-01-01T10:22:26;-21367.19;;;8.45;68.19
7337;BME280;54510;42.016;23.098;2023-01-01T10:25:00;-21371.50;;;8.61;68.06
7337;BME280;54510;42.016;23.098;2023-01-01T10:27:35;-21370.94;;;8.59;67.75
7337;BME280;54510;42.016;23.098;2023-01-01T10:30:03;-21368.72;;;8.51;67.49
7337;BME280;54510;42.016;23.098;2023-01-01T10:32:34;-21371.50;;;8.61;67.64
7337;BME280;54510;42.016;23.098;2023-01-01T10:35:02;-21370.66;;;8.58;67.68
7337;BME280;54510;42.016;23.098;2023-01-01T10:37:36;-21370.94;;;8.59;68.37
7337;BME280;54510;42.016;23.098;2023-01-01T10:40:12;-21374.97;;;8.73;67.71
7337;BME280;54510;42.016;23.098;2023-01-01T10:42:37;-21376.78;;;8.80;67.49
7337;BME280;54510;42.016;23.098;2023-01-01T10:45:04;-21376.91;;;8.81;67.66
7337;BME280;54510;42.016;23.098;2023-01-01T10:47:29;-21378.44;;;8.86;68.08
7337;BME280;54510;42.016;23.098;2023-01-01T10:50:00;-21382.63;;;9.01;68.73
7337;BME280;54510;42.016;23.098;2023-01-01T10:52:37;-21387.06;;;9.18;68.35
7337;BME280;54510;42.016;23.098;2023-01-01T10:55:25;-21389.28;;;9.26;67.23
7337;BME280;54510;42.016;23.098;2023-01-01T10:57:50;-21388.31;;;9.22;66.97
7337;BME280;54510;42.016;23.098;2023-01-01T11:00:25;-21385.81;;;9.13;66.72
7337;BME280;54510;42.016;23.098;2023-01-01T11:03:12;-21392.06;;;9.36;66.24
7337;BME280;54510;42.016;23.098;2023-01-01T11:06:02;-21394.44;;;9.44;66.07
7337;BME280;54510;42.016;23.098;2023-01-01T11:08:30;-21398.59;;;9.60;66.19
7337;BME280;54510;42.016;23.098;2023-01-01T11:10:58;-21401.25;;;9.69;65.77
7337;BME280;54510;42.016;23.098;2023-01-01T11:13:25;-21401.25;;;9.69;65.75
7337;BME280;54510;42.016;23.098;2023-01-01T11:15:51;-21405.97;;;9.86;65.56
7337;BME280;54510;42.016;23.098;2023-01-01T11:18:22;-21408.06;;;9.94;65.92
7337;BME280;54510;42.016;23.098;2023-01-01T11:20:57;-21408.88;;;9.97;65.32
7337;BME280;54510;42.016;23.098;2023-01-01T11:23:37;-21413.47;;;10.14;64.70
7337;BME280;54510;42.016;23.098;2023-01-01T11:28:38;-21414.31;;;10.17;64.44
7337;BME280;54510;42.016;23.098;2023-01-01T11:31:11;-21415.69;;;10.22;64.86
7337;BME280;54510;42.016;23.098;2023-01-01T11:33:43;-21421.94;;;10.45;64.55
7337;BME280;54510;42.016;23.098;2023-01-01T11:36:09;-21423.47;;;10.50;63.79
7337;BME280;54510;42.016;23.098;2023-01-01T11:38:35;-21425.69;;;10.58;63.54
7337;BME280;54510;42.016;23.098;2023-01-01T11:41:05;-21425.97;;;10.59;63.17
7337;BME280;54510;42.016;23.098;2023-01-01T11:43:37;-21429.03;;;10.71;63.02
7337;BME280;54510;42.016;23.098;2023-01-01T11:46:06;-21431.94;;;10.81;62.54
7337;BME280;54510;42.016;23.098;2023-01-01T11:48:33;-21436.09;;;10.96;62.04
7337;BME280;54510;42.016;23.098;2023-01-01T11:51:05;-21437.34;;;11.01;62.03
7337;BME280;54510;42.016;23.098;2023-01-01T11:53:34;-21438.31;;;11.04;61.48
7337;BME280;54510;42.016;23.098;2023-01-01T11:56:19;-21441.66;;;11.17;61.63
7337;BME280;54510;42.016;23.098;2023-01-01T11:58:55;-21442.91;;;11.21;61.63
7337;BME280;54510;42.016;23.098;2023-01-01T12:01:29;-21444.44;;;11.27;61.45
7337;BME280;54510;42.016;23.098;2023-01-01T12:06:43;-21450.94;;;11.51;61.01
7337;BME280;54510;42.016;23.098;2023-01-01T12:11:51;-21458.44;;;11.78;60.07
7337;BME280;54510;42.016;23.098;2023-01-01T12:17:11;-21471.03;;;12.24;59.22
7337;BME280;54510;42.016;23.098;2023-01-01T12:22:29;-21479.22;;;12.54;58.05
7337;BME280;54510;42.016;23.098;2023-01-01T12:24:55;-21481.44;;;12.62;57.41
7337;BME280;54510;42.016;23.098;2023-01-01T12:49:12;-21513.53;;;13.79;53.85
7337;BME280;54510;42.016;23.098;2023-01-01T12:51:53;-21515.63;;;13.87;53.42
7337;BME280;54510;42.016;23.098;2023-01-01T12:59:57;-21526.69;;;14.28;52.01
7337;BME280;54510;42.016;23.098;2023-01-01T13:02:27;-21531.25;;;14.44;52.14
7337;BME280;54510;42.016;23.098;2023-01-01T13:05:00;-21533.03;;;14.51;51.68
7337;BME280;54510;42.016;23.098;2023-01-01T13:07:28;-21534.13;;;14.55;51.89
7337;BME280;54510;42.016;23.098;2023-01-01T13:09:55;-21554.16;;;15.28;49.98
7337;BME280;54510;42.016;23.098;2023-01-01T13:12:23;-21561.88;;;15.57;50.04
7337;BME280;54510;42.016;23.098;2023-01-01T13:14:49;-21560.78;;;15.53;48.50
7337;BME280;54510;42.016;23.098;2023-01-01T13:17:24;-21561.88;;;15.57;49.11
7337;BME280;54510;42.016;23.098;2023-01-01T13:19:57;-21575.00;;;16.05;48.70
7337;BME280;54510;42.016;23.098;2023-01-01T13:33:27;-21591.00;;;16.64;46.42
7337;BME280;54510;42.016;23.098;2023-01-01T13:46:41;-21589.75;;;16.59;46.15
7337;BME280;54510;42.016;23.098;2023-01-01T14:02:52;-21592.78;;;16.70;47.10
7337;BME280;54510;42.016;23.098;2023-01-01T14:05:54;-21591.13;;;16.64;47.01
7337;BME280;54510;42.016;23.098;2023-01-01T14:08:33;-21591.13;;;16.64;47.30
7337;BME280;54510;42.016;23.098;2023-01-01T14:11:01;-21590.16;;;16.61;47.38
7337;BME280;54510;42.016;23.098;2023-01-01T14:13:29;-21586.03;;;16.45;47.22
7337;BME280;54510;42.016;23.098;2023-01-01T14:16:01;-21590.28;;;16.61;47.56
7337;BME280;54510;42.016;23.098;2023-01-01T14:18:35;-21589.88;;;16.59;47.31
7337;BME280;54510;42.016;23.098;2023-01-01T14:21:10;-21591.41;;;16.65;47.10
7337;BME280;54510;42.016;23.098;2023-01-01T14:23:42;-21592.63;;;16.70;47.09
7337;BME280;54510;42.016;23.098;2023-01-01T14:26:11;-21587.41;;;16.50;47.45
7337;BME280;54510;42.016;23.098;2023-01-01T14:28:38;-21582.56;;;16.33;47.89
7337;BME280;54510;42.016;23.098;2023-01-01T14:31:31;-21576.09;;;16.09;48.44
7337;BME280;54510;42.016;23.098;2023-01-01T14:33:58;-21569.63;;;15.85;49.18
7337;BME280;54510;42.016;23.098;2023-01-01T14:36:27;-21563.53;;;15.63;49.42
7337;BME280;54510;42.016;23.098;2023-01-01T14:38:55;-21556.50;;;15.37;49.69
7337;BME280;54510;42.016;23.098;2023-01-01T14:41:31;-21547.81;;;15.05;50.65
7337;BME280;54510;42.016;23.098;2023-01-01T14:44:05;-21541.59;;;14.82;51.39
7337;BME280;54510;42.016;23.098;2023-01-01T14:46:31;-21533.72;;;14.53;51.99
7337;BME280;54510;42.016;23.098;2023-01-01T14:49:00;-21521.28;;;14.08;54.30
7337;BME280;54510;42.016;23.098;2023-01-01T14:51:29;-21524.47;;;14.19;55.30
7337;BME280;54510;42.016;23.098;2023-01-01T14:53:58;-21513.69;;;13.80;55.80
7337;BME280;54510;42.016;23.098;2023-01-01T15:01:44;-21479.50;;;12.55;60.83
7337;BME280;54510;42.016;23.098;2023-01-01T15:04:28;-21471.31;;;12.25;62.03
7337;BME280;54510;42.016;23.098;2023-01-01T15:06:55;-21466.75;;;12.08;62.46
7337;BME280;54510;42.016;23.098;2023-01-01T15:09:21;-21462.03;;;11.91;63.32
7337;BME280;54510;42.016;23.098;2023-01-01T15:11:53;-21455.94;;;11.69;64.04
7337;BME280;54510;42.016;23.098;2023-01-01T15:17:01;-21445.97;;;11.32;65.53
7337;BME280;54510;42.016;23.098;2023-01-01T15:19:26;-21444.97;;;11.29;65.24
7337;BME280;54510;42.016;23.098;2023-01-01T15:21:52;-21445.41;;;11.30;65.26
7337;BME280;54510;42.016;23.098;2023-01-01T15:24:19;-21436.53;;;10.98;66.56
7337;BME280;54510;42.016;23.098;2023-01-01T15:29:25;-21438.75;;;11.06;66.11